sensor_id;sensor_type;location;lat;lon;timestamp;P1;durP1;ratioP1;P2;durP2;ratioP2
26690;SDS011;14307;51.718;8.938;2022-10-24T00:01:09;15.45;;;10.48;;
26690;SDS011;14307;51.718;8.938;2022-10-24T00:03:41;18.17;;;11.23;;
26690;SDS011;14307;51.718;8.938;2022-10-24T00:06:09;21.55;;;11.85;;
26690;SDS011;14307;51.718;8.938;2022-10-24T00:08:37;15.73;;;9.98;;
26690;SDS011;14307;51.718;8.938;2022-10-24T00:11:08;22.02;;;12.00;;
26690;SDS011;14307;51.718;8.938;2022-10-24T00:13:41;19.95;;;12.40;;
26690;SDS011;14307;51.718;8.938;2022-10-24T00:16:08;24.13;;;12.30;;
26690;SDS011;14307;51.718;8.938;2022-10-24T00:18:36;17.52;;;12.30;;
26690;SDS011;14307;51.718;8.938;2022-10-24T00:21:03;27.75;;;14.18;;
26690;SDS011;14307;51.718;8.938;2022-10-24T00:23:30;19.02;;;13.55;;
26690;SDS011;14307;51.718;8.938;2022-10-24T00:25:57;26.27;;;13.90;;
26690;SDS011;14307;51.718;8.938;2022-10-24T00:28:27;27.88;;;13.70;;
26690;SDS011;14307;51.718;8.938;2022-10-24T00:30:55;23.33;;;12.45;;
26690;SDS011;14307;51.718;8.938;2022-10-24T00:33:23;21.85;;;12.48;;
26690;SDS011;14307;51.718;8.938;2022-10-24T00:35:50;17.63;;;12.07;;
26690;SDS011;14307;51.718;8.938;2022-10-24T00:38:17;32.17;;;14.07;;
26690;SDS011;14307;51.718;8.938;2022-10-24T00:40:44;18.75;;;12.00;;
26690;SDS011;14307;51.718;8.938;2022-10-24T00:43:18;21.63;;;13.77;;
26690;SDS011;14307;51.718;8.938;2022-10-24T00:45:48;22.30;;;13.13;;
26690;SDS011;14307;51.718;8.938;2022-10-24T00:48:41;18.20;;;12.90;;
26690;SDS011;14307;51.718;8.938;2022-10-24T00:54:03;23.42;;;12.45;;
26690;SDS011;14307;51.718;8.938;2022-10-24T00:56:35;21.20;;;11.98;;
26690;SDS011;14307;51.718;8.938;2022-10-24T00:59:04;16.80;;;11.77;;
26690;SDS011;14307;51.718;8.938;2022-10-24T01:01:33;20.90;;;12.45;;
26690;SDS011;14307;51.718;8.938;2022-10-24T01:04:01;22.50;;;12.65;;
26690;SDS011;14307;51.718;8.938;2022-10-24T01:07:15;18.80;;;11.60;;
26690;SDS011;14307;51.718;8.938;2022-10-24T01:15:53;19.42;;;11.38;;
26690;SDS011;14307;51.718;8.938;2022-10-24T01:18:11;18.33;;;11.25;;
26690;SDS011;14307;51.718;8.938;2022-10-24T01:21:18;20.02;;;12.10;;
26690;SDS011;14307;51.718;8.938;2022-10-24T01:23:59;25.52;;;11.18;;
26690;SDS011;14307;51.718;8.938;2022-10-24T01:32:07;27.42;;;11.75;;
26690;SDS011;14307;51.718;8.938;2022-10-24T01:34:42;20.95;;;12.43;;
26690;SDS011;14307;51.718;8.938;2022-10-24T01:37:17;19.00;;;12.63;;
26690;SDS011;14307;51.718;8.938;2022-10-24T01:39:50;18.52;;;11.40;;
26690;SDS011;14307;51.718;8.938;2022-10-24T01:42:22;26.13;;;12.13;;
26690;SDS011;14307;51.718;8.938;2022-10-24T01:44:53;18.80;;;11.48;;
26690;SDS011;14307;51.718;8.938;2022-10-24T01:47:26;23.77;;;12.07;;
26690;SDS011;14307;51.718;8.938;2022-10-24T01:52:33;17.23;;;10.63;;
26690;SDS011;14307;51.718;8.938;2022-10-24T01:55:04;22.02;;;11.90;;
26690;SDS011;14307;51.718;8.938;2022-10-24T01:57:32;22.80;;;11.90;;
26690;SDS011;14307;51.718;8.938;2022-10-24T01:59:59;22.48;;;13.55;;
26690;SDS011;14307;51.718;8.938;2022-10-24T02:05:14;19.85;;;12.73;;
26690;SDS011;14307;51.718;8.938;2022-10-24T02:07:47;21.27;;;13.60;;
26690;SDS011;14307;51.718;8.938;2022-10-24T02:10:23;24.90;;;14.10;;
26690;SDS011;14307;51.718;8.938;2022-10-24T02:12:59;22.20;;;14.10;;
26690;SDS011;14307;51.718;8.938;2022-10-24T02:15:32;29.88;;;16.02;;
26690;SDS011;14307;51.718;8.938;2022-10-24T02:18:02;29.63;;;14.55;;
26690;SDS011;14307;51.718;8.938;2022-10-24T02:20:36;26.95;;;15.00;;
26690;SDS011;14307;51.718;8.938;2022-10-24T02:29:47;24.70;;;13.67;;
26690;SDS011;14307;51.718;8.938;2022-10-24T02:32:28;27.00;;;13.85;;
26690;SDS011;14307;51.718;8.938;2022-10-24T02:34:59;32.45;;;15.13;;
26690;SDS011;14307;51.718;8.938;2022-10-24T02:37:28;27.30;;;14.82;;
26690;SDS011;14307;51.718;8.938;2022-10-24T02:39:57;29.98;;;16.20;;
26690;SDS011;14307;51.718;8.938;2022-10-24T02:42:25;36.15;;;15.35;;
26690;SDS011;14307;51.718;8.938;2022-10-24T02:44:59;32.22;;;16.23;;
26690;SDS011;14307;51.718;8.938;2022-10-24T02:47:27;29.27;;;13.95;;
26690;SDS011;14307;51.718;8.938;2022-10-24T02:49:56;30.60;;;15.82;;
26690;SDS011;14307;51.718;8.938;2022-10-24T02:52:23;35.83;;;16.08;;
26690;SDS011;14307;51.718;8.938;2022-10-24T02:54:50;28.98;;;16.20;;
26690;SDS011;14307;51.718;8.938;2022-10-24T02:57:17;33.58;;;16.17;;
26690;SDS011;14307;51.718;8.938;2022-10-24T02:59:46;30.85;;;16.60;;
26690;SDS011;14307;51.718;8.938;2022-10-24T03:02:13;32.15;;;17.35;;
26690;SDS011;14307;51.718;8.938;2022-10-24T03:04:40;30.58;;;16.90;;
26690;SDS011;14307;51.718;8.938;2022-10-24T03:07:07;40.05;;;17.83;;
26690;SDS011;14307;51.718;8.938;2022-10-24T03:09:33;28.40;;;16.40;;
26690;SDS011;14307;51.718;8.938;2022-10-24T03:12:00;28.55;;;15.15;;
26690;SDS011;14307;51.718;8.938;2022-10-24T03:14:30;27.45;;;15.90;;
26690;SDS011;14307;51.718;8.938;2022-10-24T03:16:57;33.45;;;15.23;;
26690;SDS011;14307;51.718;8.938;2022-10-24T03:19:24;33.97;;;16.10;;
26690;SDS011;14307;51.718;8.938;2022-10-24T03:21:50;27.95;;;15.38;;
26690;SDS011;14307;51.718;8.938;2022-10-24T03:24:17;30.75;;;15.40;;
26690;SDS011;14307;51.718;8.938;2022-10-24T03:27:02;27.20;;;12.85;;
26690;SDS011;14307;51.718;8.938;2022-10-24T03:29:29;21.90;;;12.30;;
26690;SDS011;14307;51.718;8.938;2022-10-24T03:31:56;25.23;;;12.18;;
26690;SDS011;14307;51.718;8.938;2022-10-24T03:34:22;24.95;;;11.07;;
26690;SDS011;14307;51.718;8.938;2022-10-24T03:36:49;23.27;;;10.48;;
26690;SDS011;14307;51.718;8.938;2022-10-24T03:39:16;20.98;;;11.30;;
26690;SDS011;14307;51.718;8.938;2022-10-24T03:41:43;22.45;;;10.70;;
26690;SDS011;14307;51.718;8.938;2022-10-24T03:44:09;21.05;;;11.02;;
26690;SDS011;14307;51.718;8.938;2022-10-24T03:46:36;21.30;;;11.45;;
26690;SDS011;14307;51.718;8.938;2022-10-24T03:49:03;18.85;;;11.20;;
26690;SDS011;14307;51.718;8.938;2022-10-24T03:51:31;22.17;;;11.10;;
26690;SDS011;14307;51.718;8.938;2022-10-24T03:53:58;21.60;;;10.07;;
26690;SDS011;14307;51.718;8.938;2022-10-24T03:56:24;28.27;;;10.88;;
26690;SDS011;14307;51.718;8.938;2022-10-24T03:58:51;22.40;;;9.93;;
26690;SDS011;14307;51.718;8.938;2022-10-24T04:01:18;25.85;;;10.27;;
26690;SDS011;14307;51.718;8.938;2022-10-24T04:03:45;21.00;;;11.25;;
26690;SDS011;14307;51.718;8.938;2022-10-24T04:06:12;23.10;;;10.05;;
26690;SDS011;14307;51.718;8.938;2022-10-24T04:08:39;20.63;;;9.38;;
26690;SDS011;14307;51.718;8.938;2022-10-24T04:11:06;18.63;;;10.88;;
26690;SDS011;14307;51.718;8.938;2022-10-24T04:13:33;20.33;;;9.90;;
26690;SDS011;14307;51.718;8.938;2022-10-24T04:16:00;23.08;;;10.70;;
26690;SDS011;14307;51.718;8.938;2022-10-24T04:18:27;27.88;;;11.00;;
26690;SDS011;14307;51.718;8.938;2022-10-24T04:20:53;26.60;;;10.70;;
26690;SDS011;14307;51.718;8.938;2022-10-24T04:23:20;27.98;;;12.57;;
26690;SDS011;14307;51.718;8.938;2022-10-24T04:25:49;20.02;;;10.65;;
26690;SDS011;14307;51.718;8.938;2022-10-24T04:28:16;29.95;;;11.93;;
26690;SDS011;14307;51.718;8.938;2022-10-24T04:30:43;26.15;;;11.65;;
26690;SDS011;14307;51.718;8.938;2022-10-24T04:33:10;25.13;;;11.75;;
26690;SDS011;14307;51.718;8.938;2022-10-24T04:35:37;26.27;;;11.13;;
26690;SDS011;14307;51.718;8.938;2022-10-24T04:38:05;33.03;;;11.93;;
26690;SDS011;14307;51.718;8.938;2022-10-24T04:40:32;27.67;;;12.30;;
26690;SDS011;14307;51.718;8.938;2022-10-24T04:42:59;31.35;;;13.23;;
26690;SDS011;14307;51.718;8.938;2022-10-24T04:45:26;25.38;;;11.57;;
26690;SDS011;14307;51.718;8.938;2022-10-24T04:47:53;27.50;;;12.75;;
26690;SDS011;14307;51.718;8.938;2022-10-24T04:50:19;22.00;;;11.18;;
26690;SDS011;14307;51.718;8.938;2022-10-24T04:52:48;21.98;;;10.52;;
26690;SDS011;14307;51.718;8.938;2022-10-24T04:55:15;21.63;;;10.48;;
26690;SDS011;14307;51.718;8.938;2022-10-24T04:57:42;28.27;;;11.43;;
26690;SDS011;14307;51.718;8.938;2022-10-24T05:00:09;17.90;;;10.15;;
26690;SDS011;14307;51.718;8.938;2022-10-24T05:02:36;21.75;;;10.70;;
26690;SDS011;14307;51.718;8.938;2022-10-24T05:05:03;26.13;;;10.48;;
26690;SDS011;14307;51.718;8.938;2022-10-24T05:07:30;24.63;;;9.90;;
26690;SDS011;14307;51.718;8.938;2022-10-24T05:09:58;19.92;;;10.43;;
26690;SDS011;14307;51.718;8.938;2022-10-24T05:12:25;21.20;;;10.30;;
26690;SDS011;14307;51.718;8.938;2022-10-24T05:14:52;27.40;;;10.65;;
26690;SDS011;14307;51.718;8.938;2022-10-24T05:17:19;31.35;;;11.57;;
26690;SDS011;14307;51.718;8.938;2022-10-24T05:19:46;21.63;;;11.75;;
26690;SDS011;14307;51.718;8.938;2022-10-24T05:22:13;30.02;;;11.38;;
26690;SDS011;14307;51.718;8.938;2022-10-24T05:24:39;24.38;;;10.80;;
26690;SDS011;14307;51.718;8.938;2022-10-24T05:27:06;23.33;;;9.50;;
26690;SDS011;14307;51.718;8.938;2022-10-24T05:29:34;18.10;;;8.73;;
26690;SDS011;14307;51.718;8.938;2022-10-24T05:32:02;19.52;;;10.38;;
26690;SDS011;14307;51.718;8.938;2022-10-24T05:34:29;19.90;;;9.18;;
26690;SDS011;14307;51.718;8.938;2022-10-24T05:36:56;17.98;;;9.07;;
26690;SDS011;14307;51.718;8.938;2022-10-24T05:39:23;25.17;;;10.55;;
26690;SDS011;14307;51.718;8.938;2022-10-24T05:41:50;26.90;;;9.70;;
26690;SDS011;14307;51.718;8.938;2022-10-24T05:44:20;20.15;;;9.88;;
26690;SDS011;14307;51.718;8.938;2022-10-24T05:46:47;28.45;;;9.90;;
26690;SDS011;14307;51.718;8.938;2022-10-24T05:49:14;14.50;;;9.50;;
26690;SDS011;14307;51.718;8.938;2022-10-24T05:51:41;21.10;;;8.98;;
26690;SDS011;14307;51.718;8.938;2022-10-24T05:54:08;22.45;;;8.88;;
26690;SDS011;14307;51.718;8.938;2022-10-24T05:56:35;22.85;;;9.40;;
26690;SDS011;14307;51.718;8.938;2022-10-24T05:59:02;22.13;;;8.93;;
26690;SDS011;14307;51.718;8.938;2022-10-24T06:01:29;26.67;;;10.05;;
26690;SDS011;14307;51.718;8.938;2022-10-24T06:03:56;27.58;;;9.57;;
26690;SDS011;14307;51.718;8.938;2022-10-24T06:06:23;18.90;;;9.82;;
26690;SDS011;14307;51.718;8.938;2022-10-24T06:08:50;24.00;;;10.23;;
26690;SDS011;14307;51.718;8.938;2022-10-24T06:11:18;22.27;;;9.52;;
26690;SDS011;14307;51.718;8.938;2022-10-24T06:13:44;24.27;;;9.80;;
26690;SDS011;14307;51.718;8.938;2022-10-24T06:16:11;23.98;;;10.15;;
26690;SDS011;14307;51.718;8.938;2022-10-24T06:18:38;21.75;;;10.55;;
26690;SDS011;14307;51.718;8.938;2022-10-24T06:21:06;25.88;;;11.18;;
26690;SDS011;14307;51.718;8.938;2022-10-24T06:23:35;19.08;;;9.88;;
26690;SDS011;14307;51.718;8.938;2022-10-24T06:26:05;28.13;;;10.65;;
26690;SDS011;14307;51.718;8.938;2022-10-24T06:28:33;21.17;;;10.38;;
26690;SDS011;14307;51.718;8.938;2022-10-24T06:31:00;25.38;;;11.23;;
26690;SDS011;14307;51.718;8.938;2022-10-24T06:33:29;18.98;;;10.75;;
26690;SDS011;14307;51.718;8.938;2022-10-24T06:36:00;20.23;;;9.32;;
26690;SDS011;14307;51.718;8.938;2022-10-24T06:38:30;25.63;;;10.43;;
26690;SDS011;14307;51.718;8.938;2022-10-24T06:41:05;22.83;;;10.00;;
26690;SDS011;14307;51.718;8.938;2022-10-24T06:43:33;23.20;;;10.30;;
26690;SDS011;14307;51.718;8.938;2022-10-24T06:46:04;18.77;;;8.95;;
26690;SDS011;14307;51.718;8.938;2022-10-24T06:48:35;24.80;;;10.38;;
26690;SDS011;14307;51.718;8.938;2022-10-24T06:51:02;13.23;;;10.02;;
26690;SDS011;14307;51.718;8.938;2022-10-24T06:53:29;19.38;;;9.50;;
26690;SDS011;14307;51.718;8.938;2022-10-24T06:56:01;16.80;;;8.57;;
26690;SDS011;14307;51.718;8.938;2022-10-24T06:58:29;21.83;;;10.07;;
26690;SDS011;14307;51.718;8.938;2022-10-24T07:01:05;19.98;;;10.73;;
26690;SDS011;14307;51.718;8.938;2022-10-24T07:03:33;16.10;;;8.90;;
26690;SDS011;14307;51.718;8.938;2022-10-24T07:06:04;20.52;;;10.55;;
26690;SDS011;14307;51.718;8.938;2022-10-24T07:08:35;14.55;;;9.65;;
26690;SDS011;14307;51.718;8.938;2022-10-24T07:11:02;17.75;;;10.32;;
26690;SDS011;14307;51.718;8.938;2022-10-24T07:13:29;15.27;;;9.93;;
26690;SDS011;14307;51.718;8.938;2022-10-24T07:15:55;22.55;;;10.48;;
26690;SDS011;14307;51.718;8.938;2022-10-24T07:18:22;24.02;;;10.43;;
26690;SDS011;14307;51.718;8.938;2022-10-24T07:20:50;17.02;;;10.23;;
26690;SDS011;14307;51.718;8.938;2022-10-24T07:23:17;15.63;;;9.43;;
26690;SDS011;14307;51.718;8.938;2022-10-24T07:25:44;19.42;;;9.23;;
26690;SDS011;14307;51.718;8.938;2022-10-24T07:28:11;21.83;;;10.90;;
26690;SDS011;14307;51.718;8.938;2022-10-24T07:30:38;18.38;;;10.93;;
26690;SDS011;14307;51.718;8.938;2022-10-24T07:33:06;17.77;;;10.60;;
26690;SDS011;14307;51.718;8.938;2022-10-24T07:35:33;23.98;;;11.95;;
26690;SDS011;14307;51.718;8.938;2022-10-24T07:38:00;16.35;;;12.05;;
26690;SDS011;14307;51.718;8.938;2022-10-24T07:40:26;23.00;;;11.98;;
26690;SDS011;14307;51.718;8.938;2022-10-24T07:42:53;19.27;;;11.77;;
26690;SDS011;14307;51.718;8.938;2022-10-24T07:45:20;17.13;;;11.48;;
26690;SDS011;14307;51.718;8.938;2022-10-24T07:47:47;18.50;;;11.57;;
26690;SDS011;14307;51.718;8.938;2022-10-24T07:50:13;15.23;;;11.45;;
26690;SDS011;14307;51.718;8.938;2022-10-24T07:52:42;19.55;;;11.63;;
26690;SDS011;14307;51.718;8.938;2022-10-24T07:55:09;17.85;;;12.68;;
26690;SDS011;14307;51.718;8.938;2022-10-24T07:57:35;22.20;;;13.55;;
26690;SDS011;14307;51.718;8.938;2022-10-24T08:00:03;17.48;;;13.70;;
26690;SDS011;14307;51.718;8.938;2022-10-24T08:02:37;24.63;;;14.25;;
26690;SDS011;14307;51.718;8.938;2022-10-24T08:05:04;14.98;;;13.02;;
26690;SDS011;14307;51.718;8.938;2022-10-24T08:07:34;18.58;;;14.85;;
26690;SDS011;14307;51.718;8.938;2022-10-24T08:10:02;21.17;;;14.30;;
26690;SDS011;14307;51.718;8.938;2022-10-24T08:12:29;22.77;;;15.30;;
26690;SDS011;14307;51.718;8.938;2022-10-24T08:14:56;19.55;;;14.75;;
26690;SDS011;14307;51.718;8.938;2022-10-24T08:17:23;21.60;;;15.02;;
26690;SDS011;14307;51.718;8.938;2022-10-24T08:19:50;19.33;;;13.80;;
26690;SDS011;14307;51.718;8.938;2022-10-24T08:22:16;17.55;;;12.85;;
26690;SDS011;14307;51.718;8.938;2022-10-24T08:24:43;21.35;;;14.25;;
26690;SDS011;14307;51.718;8.938;2022-10-24T08:27:10;22.10;;;15.77;;
26690;SDS011;14307;51.718;8.938;2022-10-24T08:29:37;24.83;;;15.90;;
26690;SDS011;14307;51.718;8.938;2022-10-24T08:32:04;21.67;;;17.10;;
26690;SDS011;14307;51.718;8.938;2022-10-24T08:37:02;20.15;;;18.02;;
26690;SDS011;14307;51.718;8.938;2022-10-24T08:39:29;21.02;;;18.13;;
26690;SDS011;14307;51.718;8.938;2022-10-24T08:41:57;19.45;;;17.73;;
26690;SDS011;14307;51.718;8.938;2022-10-24T08:44:29;25.20;;;18.85;;
26690;SDS011;14307;51.718;8.938;2022-10-24T08:55:36;25.48;;;18.48;;
26690;SDS011;14307;51.718;8.938;2022-10-24T08:58:29;20.73;;;18.70;;
26690;SDS011;14307;51.718;8.938;2022-10-24T09:01:01;22.17;;;19.88;;
26690;SDS011;14307;51.718;8.938;2022-10-24T09:03:39;23.08;;;20.83;;
26690;SDS011;14307;51.718;8.938;2022-10-24T09:06:28;23.10;;;20.60;;
26690;SDS011;14307;51.718;8.938;2022-10-24T09:08:57;22.98;;;20.67;;
26690;SDS011;14307;51.718;8.938;2022-10-24T09:14:15;25.70;;;23.33;;
26690;SDS011;14307;51.718;8.938;2022-10-24T09:16:44;26.55;;;24.20;;
26690;SDS011;14307;51.718;8.938;2022-10-24T09:19:18;28.20;;;25.77;;
26690;SDS011;14307;51.718;8.938;2022-10-24T09:21:48;25.67;;;23.55;;
26690;SDS011;14307;51.718;8.938;2022-10-24T09:27:13;28.17;;;25.88;;
26690;SDS011;14307;51.718;8.938;2022-10-24T09:29:48;29.83;;;26.65;;
26690;SDS011;14307;51.718;8.938;2022-10-24T09:32:18;28.35;;;25.42;;
26690;SDS011;14307;51.718;8.938;2022-10-24T09:34:47;27.20;;;24.98;;
26690;SDS011;14307;51.718;8.938;2022-10-24T09:37:27;26.52;;;24.73;;
26690;SDS011;14307;51.718;8.938;2022-10-24T09:40:26;22.17;;;20.85;;
26690;SDS011;14307;51.718;8.938;2022-10-24T09:43:06;24.33;;;22.52;;
26690;SDS011;14307;51.718;8.938;2022-10-24T09:48:29;24.95;;;22.80;;
26690;SDS011;14307;51.718;8.938;2022-10-24T09:51:03;22.70;;;21.00;;
26690;SDS011;14307;51.718;8.938;2022-10-24T09:53:33;23.25;;;21.75;;
26690;SDS011;14307;51.718;8.938;2022-10-24T09:56:21;24.13;;;22.33;;
26690;SDS011;14307;51.718;8.938;2022-10-24T09:58:59;21.73;;;20.30;;
26690;SDS011;14307;51.718;8.938;2022-10-24T10:01:51;22.98;;;21.05;;
26690;SDS011;14307;51.718;8.938;2022-10-24T10:04:19;21.95;;;20.45;;
26690;SDS011;14307;51.718;8.938;2022-10-24T10:06:47;21.35;;;19.95;;
26690;SDS011;14307;51.718;8.938;2022-10-24T10:09:22;21.25;;;19.85;;
26690;SDS011;14307;51.718;8.938;2022-10-24T10:11:55;22.40;;;20.90;;
26690;SDS011;14307;51.718;8.938;2022-10-24T10:14:30;22.10;;;20.50;;
26690;SDS011;14307;51.718;8.938;2022-10-24T10:17:01;23.00;;;21.40;;
26690;SDS011;14307;51.718;8.938;2022-10-24T10:19:34;22.75;;;21.13;;
26690;SDS011;14307;51.718;8.938;2022-10-24T10:22:05;24.13;;;22.42;;
26690;SDS011;14307;51.718;8.938;2022-10-24T10:24:47;24.90;;;22.98;;
26690;SDS011;14307;51.718;8.938;2022-10-24T10:27:29;25.05;;;23.13;;
26690;SDS011;14307;51.718;8.938;2022-10-24T10:32:56;23.90;;;21.58;;
26690;SDS011;14307;51.718;8.938;2022-10-24T10:35:54;23.30;;;21.70;;
26690;SDS011;14307;51.718;8.938;2022-10-24T10:46:36;23.92;;;22.23;;
26690;SDS011;14307;51.718;8.938;2022-10-24T10:49:29;24.52;;;22.25;;
26690;SDS011;14307;51.718;8.938;2022-10-24T11:03:16;24.25;;;22.50;;
26690;SDS011;14307;51.718;8.938;2022-10-24T11:06:09;22.35;;;20.55;;
26690;SDS011;14307;51.718;8.938;2022-10-24T11:14:55;23.80;;;21.52;;
26690;SDS011;14307;51.718;8.938;2022-10-24T11:17:32;22.77;;;20.95;;
26690;SDS011;14307;51.718;8.938;2022-10-24T11:20:13;26.35;;;23.85;;
26690;SDS011;14307;51.718;8.938;2022-10-24T11:22:58;24.50;;;22.60;;
26690;SDS011;14307;51.718;8.938;2022-10-24T11:26:01;25.08;;;22.83;;
26690;SDS011;14307;51.718;8.938;2022-10-24T11:28:42;23.00;;;21.50;;
26690;SDS011;14307;51.718;8.938;2022-10-24T11:31:18;21.50;;;20.05;;
26690;SDS011;14307;51.718;8.938;2022-10-24T11:36:45;22.60;;;21.00;;
26690;SDS011;14307;51.718;8.938;2022-10-24T11:39:23;21.85;;;20.25;;
26690;SDS011;14307;51.718;8.938;2022-10-24T11:42:01;21.80;;;20.30;;
26690;SDS011;14307;51.718;8.938;2022-10-24T11:44:48;21.75;;;20.15;;
26690;SDS011;14307;51.718;8.938;2022-10-24T11:50:04;22.50;;;20.88;;
26690;SDS011;14307;51.718;8.938;2022-10-24T11:52:40;21.77;;;20.23;;
26690;SDS011;14307;51.718;8.938;2022-10-24T11:55:13;22.95;;;20.73;;
26690;SDS011;14307;51.718;8.938;2022-10-24T11:58:14;22.08;;;20.30;;
26690;SDS011;14307;51.718;8.938;2022-10-24T12:04:22;22.80;;;20.75;;
26690;SDS011;14307;51.718;8.938;2022-10-24T12:09:10;22.15;;;20.50;;
26690;SDS011;14307;51.718;8.938;2022-10-24T12:17:34;22.25;;;20.25;;
26690;SDS011;14307;51.718;8.938;2022-10-24T12:20:22;21.65;;;19.98;;
26690;SDS011;14307;51.718;8.938;2022-10-24T12:22:51;23.55;;;21.75;;
26690;SDS011;14307;51.718;8.938;2022-10-24T12:25:26;22.73;;;21.08;;
26690;SDS011;14307;51.718;8.938;2022-10-24T12:28:00;23.98;;;22.30;;
26690;SDS011;14307;51.718;8.938;2022-10-24T12:30:33;23.60;;;21.88;;
26690;SDS011;14307;51.718;8.938;2022-10-24T12:33:19;23.02;;;21.10;;
26690;SDS011;14307;51.718;8.938;2022-10-24T12:35:51;22.77;;;20.85;;
26690;SDS011;14307;51.718;8.938;2022-10-24T12:40:57;23.10;;;21.10;;
26690;SDS011;14307;51.718;8.938;2022-10-24T12:45:59;22.40;;;20.75;;
26690;SDS011;14307;51.718;8.938;2022-10-24T12:59:20;25.52;;;23.70;;
26690;SDS011;14307;51.718;8.938;2022-10-24T13:01:47;26.17;;;23.95;;
26690;SDS011;14307;51.718;8.938;2022-10-24T13:07:49;23.85;;;22.05;;
26690;SDS011;14307;51.718;8.938;2022-10-24T13:24:07;31.17;;;28.05;;
26690;SDS011;14307;51.718;8.938;2022-10-24T13:39:36;22.95;;;21.48;;
26690;SDS011;14307;51.718;8.938;2022-10-24T13:45:04;21.95;;;20.55;;
26690;SDS011;14307;51.718;8.938;2022-10-24T13:47:33;23.17;;;21.52;;
26690;SDS011;14307;51.718;8.938;2022-10-24T13:52:41;21.88;;;20.08;;
26690;SDS011;14307;51.718;8.938;2022-10-24T13:55:22;24.17;;;22.23;;
26690;SDS011;14307;51.718;8.938;2022-10-24T14:00:30;24.55;;;22.50;;
26690;SDS011;14307;51.718;8.938;2022-10-24T14:03:01;23.70;;;21.85;;
26690;SDS011;14307;51.718;8.938;2022-10-24T14:05:43;24.88;;;22.73;;
26690;SDS011;14307;51.718;8.938;2022-10-24T14:08:21;23.40;;;21.65;;
26690;SDS011;14307;51.718;8.938;2022-10-24T14:13:55;26.70;;;24.25;;
26690;SDS011;14307;51.718;8.938;2022-10-24T14:16:32;23.80;;;21.60;;
26690;SDS011;14307;51.718;8.938;2022-10-24T14:21:43;24.60;;;22.83;;
26690;SDS011;14307;51.718;8.938;2022-10-24T14:24:14;24.60;;;22.48;;
26690;SDS011;14307;51.718;8.938;2022-10-24T14:26:43;24.83;;;22.85;;
26690;SDS011;14307;51.718;8.938;2022-10-24T14:29:27;24.80;;;22.38;;
26690;SDS011;14307;51.718;8.938;2022-10-24T14:31:58;26.13;;;23.90;;
26690;SDS011;14307;51.718;8.938;2022-10-24T14:34:26;24.73;;;22.83;;
26690;SDS011;14307;51.718;8.938;2022-10-24T14:37:10;25.75;;;23.92;;
26690;SDS011;14307;51.718;8.938;2022-10-24T14:39:47;24.95;;;23.35;;
26690;SDS011;14307;51.718;8.938;2022-10-24T14:42:14;24.92;;;23.08;;
26690;SDS011;14307;51.718;8.938;2022-10-24T14:44:43;24.45;;;22.45;;
26690;SDS011;14307;51.718;8.938;2022-10-24T14:49:47;23.08;;;21.27;;
26690;SDS011;14307;51.718;8.938;2022-10-24T14:52:25;23.35;;;21.55;;
26690;SDS011;14307;51.718;8.938;2022-10-24T14:54:56;24.27;;;22.50;;
26690;SDS011;14307;51.718;8.938;2022-10-24T14:57:28;26.33;;;21.90;;
26690;SDS011;14307;51.718;8.938;2022-10-24T14:59:57;22.25;;;20.55;;
26690;SDS011;14307;51.718;8.938;2022-10-24T15:02:33;23.95;;;22.00;;
26690;SDS011;14307;51.718;8.938;2022-10-24T15:07:45;23.05;;;20.85;;
26690;SDS011;14307;51.718;8.938;2022-10-24T15:13:02;22.35;;;20.60;;
26690;SDS011;14307;51.718;8.938;2022-10-24T15:15:43;21.25;;;19.88;;
26690;SDS011;14307;51.718;8.938;2022-10-24T15:18:23;22.00;;;20.30;;
26690;SDS011;14307;51.718;8.938;2022-10-24T15:20:53;21.92;;;20.27;;
26690;SDS011;14307;51.718;8.938;2022-10-24T15:23:36;22.13;;;20.58;;
26690;SDS011;14307;51.718;8.938;2022-10-24T15:26:19;21.95;;;20.30;;
26690;SDS011;14307;51.718;8.938;2022-10-24T15:31:27;21.90;;;20.25;;
26690;SDS011;14307;51.718;8.938;2022-10-24T15:33:54;22.83;;;20.67;;
26690;SDS011;14307;51.718;8.938;2022-10-24T15:36:22;23.63;;;21.67;;
26690;SDS011;14307;51.718;8.938;2022-10-24T15:38:54;21.85;;;20.55;;
26690;SDS011;14307;51.718;8.938;2022-10-24T15:41:23;23.63;;;21.80;;
26690;SDS011;14307;51.718;8.938;2022-10-24T15:43:52;22.80;;;21.33;;
26690;SDS011;14307;51.718;8.938;2022-10-24T15:46:19;24.02;;;21.95;;
26690;SDS011;14307;51.718;8.938;2022-10-24T15:48:47;26.00;;;23.60;;
26690;SDS011;14307;51.718;8.938;2022-10-24T15:51:15;21.20;;;19.58;;
26690;SDS011;14307;51.718;8.938;2022-10-24T15:53:44;20.73;;;19.02;;
26690;SDS011;14307;51.718;8.938;2022-10-24T15:56:11;21.10;;;19.73;;
26690;SDS011;14307;51.718;8.938;2022-10-24T15:58:38;21.30;;;19.70;;
26690;SDS011;14307;51.718;8.938;2022-10-24T16:01:05;21.45;;;19.85;;
26690;SDS011;14307;51.718;8.938;2022-10-24T16:03:41;25.40;;;23.48;;
26690;SDS011;14307;51.718;8.938;2022-10-24T16:06:08;22.63;;;20.90;;
26690;SDS011;14307;51.718;8.938;2022-10-24T16:08:35;22.83;;;20.80;;
26690;SDS011;14307;51.718;8.938;2022-10-24T16:11:01;23.58;;;21.65;;
26690;SDS011;14307;51.718;8.938;2022-10-24T16:13:34;23.25;;;20.50;;
26690;SDS011;14307;51.718;8.938;2022-10-24T16:16:01;21.98;;;19.90;;
26690;SDS011;14307;51.718;8.938;2022-10-24T16:18:27;22.10;;;20.33;;
26690;SDS011;14307;51.718;8.938;2022-10-24T16:20:55;23.77;;;22.00;;
26690;SDS011;14307;51.718;8.938;2022-10-24T16:23:23;22.48;;;20.33;;
26690;SDS011;14307;51.718;8.938;2022-10-24T16:25:51;23.92;;;21.65;;
26690;SDS011;14307;51.718;8.938;2022-10-24T16:28:18;22.75;;;20.48;;
26690;SDS011;14307;51.718;8.938;2022-10-24T16:30:49;22.13;;;20.20;;
26690;SDS011;14307;51.718;8.938;2022-10-24T16:33:15;29.10;;;25.75;;
26690;SDS011;14307;51.718;8.938;2022-10-24T16:35:45;35.28;;;28.67;;
26690;SDS011;14307;51.718;8.938;2022-10-24T16:38:15;37.08;;;30.77;;
26690;SDS011;14307;51.718;8.938;2022-10-24T16:40:43;27.13;;;24.60;;
26690;SDS011;14307;51.718;8.938;2022-10-24T16:43:12;25.40;;;23.25;;
26690;SDS011;14307;51.718;8.938;2022-10-24T16:45:40;27.13;;;24.90;;
26690;SDS011;14307;51.718;8.938;2022-10-24T16:48:08;21.77;;;19.90;;
26690;SDS011;14307;51.718;8.938;2022-10-24T16:50:35;22.48;;;20.40;;
26690;SDS011;14307;51.718;8.938;2022-10-24T16:53:05;21.67;;;19.88;;
26690;SDS011;14307;51.718;8.938;2022-10-24T16:55:32;23.10;;;20.25;;
26690;SDS011;14307;51.718;8.938;2022-10-24T16:57:58;20.65;;;19.17;;
26690;SDS011;14307;51.718;8.938;2022-10-24T17:00:25;20.95;;;19.17;;
26690;SDS011;14307;51.718;8.938;2022-10-24T17:02:53;21.08;;;19.45;;
26690;SDS011;14307;51.718;8.938;2022-10-24T17:05:22;21.75;;;19.88;;
26690;SDS011;14307;51.718;8.938;2022-10-24T17:07:51;21.98;;;19.90;;
26690;SDS011;14307;51.718;8.938;2022-10-24T17:10:18;21.13;;;19.52;;
26690;SDS011;14307;51.718;8.938;2022-10-24T17:12:50;20.35;;;18.80;;
26690;SDS011;14307;51.718;8.938;2022-10-24T17:15:17;21.00;;;19.35;;
26690;SDS011;14307;51.718;8.938;2022-10-24T17:17:47;20.85;;;19.05;;
26690;SDS011;14307;51.718;8.938;2022-10-24T17:20:15;20.05;;;18.67;;
26690;SDS011;14307;51.718;8.938;2022-10-24T17:22:42;20.67;;;18.95;;
26690;SDS011;14307;51.718;8.938;2022-10-24T17:25:20;21.42;;;19.77;;
26690;SDS011;14307;51.718;8.938;2022-10-24T17:27:48;20.15;;;18.67;;